sensor_id;sensor_type;location;lat;lon;timestamp;pressure;altitude;pressure_sealevel;temperature;humidity
82784;BME280;72520;55.762;37.780;2023-08-30T00:01:16;99818.69;;;15.60;77.08
82784;BME280;72520;55.762;37.780;2023-08-30T00:04:18;99814.19;;;15.61;77.29
82784;BME280;72520;55.762;37.780;2023-08-30T00:07:21;99809.09;;;15.58;77.23
82784;BME280;72520;55.762;37.780;2023-08-30T00:10:24;99801.16;;;15.56;77.17
82784;BME280;72520;55.762;37.780;2023-08-30T00:13:29;99805.66;;;15.56;77.24
82784;BME280;72520;55.762;37.780;2023-08-30T00:16:31;99809.31;;;15.55;77.04
82784;BME280;72520;55.762;37.780;2023-08-30T00:19:34;99802.28;;;15.54;76.89
82784;BME280;72520;55.762;37.780;2023-08-30T00:22:36;99806.31;;;15.48;77.20
82784;BME280;72520;55.762;37.780;2023-08-30T00:25:38;99802.78;;;15.48;77.40
82784;BME280;72520;55.762;37.780;2023-08-30T00:28:42;99806.44;;;15.47;77.40
82784;BME280;72520;55.762;37.780;2023-08-30T00:31:44;99817.44;;;15.44;76.94
82784;BME280;72520;55.762;37.780;2023-08-30T00:34:46;99807.94;;;15.40;77.08
82784;BME280;72520;55.762;37.780;2023-08-30T00:37:48;99808.78;;;15.40;77.37
82784;BME280;72520;55.762;37.780;2023-08-30T00:40:50;99810.22;;;15.44;77.17
82784;BME280;72520;55.762;37.780;2023-08-30T00:43:54;99822.78;;;15.44;76.96
82784;BME280;72520;55.762;37.780;2023-08-30T00:46:56;99824.03;;;15.40;77.45
82784;BME280;72520;55.762;37.780;2023-08-30T00:49:58;99815.97;;;15.40;76.95
82784;BME280;72520;55.762;37.780;2023-08-30T00:53:00;99819.53;;;15.40;77.02
82784;BME280;72520;55.762;37.780;2023-08-30T00:56:06;99821.59;;;15.37;76.97
82784;BME280;72520;55.762;37.780;2023-08-30T00:59:09;99827.25;;;15.34;77.16
82784;BME280;72520;55.762;37.780;2023-08-30T01:02:11;99821.13;;;15.32;76.95
82784;BME280;72520;55.762;37.780;2023-08-30T01:05:14;99823.09;;;15.29;77.21
82784;BME280;72520;55.762;37.780;2023-08-30T01:08:16;99830.31;;;15.29;77.17
82784;BME280;72520;55.762;37.780;2023-08-30T01:11:23;99834.09;;;15.26;77.43
82784;BME280;72520;55.762;37.780;2023-08-30T01:14:30;99838.59;;;15.26;77.15
82784;BME280;72520;55.762;37.780;2023-08-30T01:17:33;99841.28;;;15.26;76.86
82784;BME280;72520;55.762;37.780;2023-08-30T01:20:39;99844.09;;;15.24;77.00
82784;BME280;72520;55.762;37.780;2023-08-30T01:23:47;99837.91;;;15.24;77.17
82784;BME280;72520;55.762;37.780;2023-08-30T01:27:07;99839.47;;;15.26;77.15
82784;BME280;72520;55.762;37.780;2023-08-30T01:30:11;99836.78;;;15.26;77.30
82784;BME280;72520;55.762;37.780;2023-08-30T01:33:14;99844.09;;;15.24;77.49
82784;BME280;72520;55.762;37.780;2023-08-30T01:36:16;99845.09;;;15.23;76.84
82784;BME280;72520;55.762;37.780;2023-08-30T01:39:20;99846.91;;;15.23;77.25
82784;BME280;72520;55.762;37.780;2023-08-30T01:42:24;99842.41;;;15.23;76.97
82784;BME280;72520;55.762;37.780;2023-08-30T01:45:30;99848.22;;;15.28;76.74
82784;BME280;72520;55.762;37.780;2023-08-30T01:48:33;99851.63;;;15.31;77.06
82784;BME280;72520;55.762;37.780;2023-08-30T01:51:37;99845.53;;;15.28;77.06
82784;BME280;72520;55.762;37.780;2023-08-30T01:54:40;99858.09;;;15.28;76.86
82784;BME280;72520;55.762;37.780;2023-08-30T01:57:44;99853.59;;;15.28;76.91
82784;BME280;72520;55.762;37.780;2023-08-30T02:00:46;99851.63;;;15.31;76.65
82784;BME280;72520;55.762;37.780;2023-08-30T02:03:48;99841.88;;;15.29;77.19
82784;BME280;72520;55.762;37.780;2023-08-30T02:06:55;99847.34;;;15.28;77.21
82784;BME280;72520;55.762;37.780;2023-08-30T02:10:02;99855.56;;;15.26;77.17
82784;BME280;72520;55.762;37.780;2023-08-30T02:13:10;99860.19;;;15.24;76.63
82784;BME280;72520;55.762;37.780;2023-08-30T02:16:14;99857.50;;;15.24;76.51
82784;BME280;72520;55.762;37.780;2023-08-30T02:19:18;99850.31;;;15.25;76.38
82784;BME280;72520;55.762;37.780;2023-08-30T02:22:21;99834.22;;;15.25;76.46
82784;BME280;72520;55.762;37.780;2023-08-30T02:25:23;99843.13;;;15.25;76.34
82784;BME280;72520;55.762;37.780;2023-08-30T02:28:29;99849.44;;;15.24;76.50
82784;BME280;72520;55.762;37.780;2023-08-30T02:31:31;99848.38;;;15.27;76.16
82784;BME280;72520;55.762;37.780;2023-08-30T02:34:33;99847.34;;;15.28;76.17
82784;BME280;72520;55.762;37.780;2023-08-30T02:37:36;99845.53;;;15.28;76.21
82784;BME280;72520;55.762;37.780;2023-08-30T02:40:40;99847.34;;;15.28;76.42
82784;BME280;72520;55.762;37.780;2023-08-30T02:43:43;99862.59;;;15.27;76.50
82784;BME280;72520;55.762;37.780;2023-08-30T02:46:45;99864.44;;;15.27;76.42
82784;BME280;72520;55.762;37.780;2023-08-30T02:49:47;99867.25;;;15.25;76.20
82784;BME280;72520;55.762;37.780;2023-08-30T02:52:50;99864.56;;;15.25;76.11
82784;BME280;72520;55.762;37.780;2023-08-30T02:55:53;99866.53;;;15.23;76.09
82784;BME280;72520;55.762;37.780;2023-08-30T02:58:57;99874.84;;;15.20;75.94
82784;BME280;72520;55.762;37.780;2023-08-30T03:02:00;99875.94;;;15.18;75.77
82784;BME280;72520;55.762;37.780;2023-08-30T03:05:02;99869.72;;;15.17;75.87
82784;BME280;72520;55.762;37.780;2023-08-30T03:08:05;99871.41;;;15.18;75.94
82784;BME280;72520;55.762;37.780;2023-08-30T03:11:08;99872.03;;;15.22;76.12
82784;BME280;72520;55.762;37.780;2023-08-30T03:14:12;99867.50;;;15.22;75.84
82784;BME280;72520;55.762;37.780;2023-08-30T03:17:14;99861.28;;;15.22;75.79
82784;BME280;72520;55.762;37.780;2023-08-30T03:20:16;99865.69;;;15.23;76.17
82784;BME280;72520;55.762;37.780;2023-08-30T03:23:18;99868.47;;;15.21;75.40
82784;BME280;72520;55.762;37.780;2023-08-30T03:26:20;99860.84;;;15.17;75.51
82784;BME280;72520;55.762;37.780;2023-08-30T03:29:24;99865.47;;;15.15;75.40
82784;BME280;72520;55.762;37.780;2023-08-30T03:32:26;99861.91;;;15.14;74.81
82784;BME280;72520;55.762;37.780;2023-08-30T03:35:28;99866.06;;;15.18;75.24
82784;BME280;72520;55.762;37.780;2023-08-30T03:38:30;99869.59;;;15.19;74.86
82784;BME280;72520;55.762;37.780;2023-08-30T03:41:32;99872.38;;;15.17;75.06
82784;BME280;72520;55.762;37.780;2023-08-30T03:44:37;99878.50;;;15.19;75.10
82784;BME280;72520;55.762;37.780;2023-08-30T03:47:39;99875.81;;;15.19;75.11
82784;BME280;72520;55.762;37.780;2023-08-30T03:50:41;99868.47;;;15.21;75.55
82784;BME280;72520;55.762;37.780;2023-08-30T03:53:43;99873.72;;;15.23;75.41
82784;BME280;72520;55.762;37.780;2023-08-30T03:56:45;99861.19;;;15.23;75.06
82784;BME280;72520;55.762;37.780;2023-08-30T03:59:49;99876.25;;;15.24;75.00
82784;BME280;72520;55.762;37.780;2023-08-30T04:02:51;99866.53;;;15.23;75.09
82784;BME280;72520;55.762;37.780;2023-08-30T04:05:56;99870.44;;;15.19;74.90
82784;BME280;72520;55.762;37.780;2023-08-30T04:08:59;99874.00;;;15.20;74.66
82784;BME280;72520;55.762;37.780;2023-08-30T04:12:01;99879.34;;;15.20;74.41
82784;BME280;72520;55.762;37.780;2023-08-30T04:15:07;99871.16;;;15.21;74.87
82784;BME280;72520;55.762;37.780;2023-08-30T04:18:11;99880.81;;;15.24;74.42
82784;BME280;72520;55.762;37.780;2023-08-30T04:21:13;99869.34;;;15.22;74.38
82784;BME280;72520;55.762;37.780;2023-08-30T04:24:15;99881.03;;;15.21;74.12
82784;BME280;72520;55.762;37.780;2023-08-30T04:27:17;99868.47;;;15.21;74.33
82784;BME280;72520;55.762;37.780;2023-08-30T04:30:20;99867.63;;;15.21;74.59
82784;BME280;72520;55.762;37.780;2023-08-30T04:33:23;99872.88;;;15.22;73.93
82784;BME280;72520;55.762;37.780;2023-08-30T04:36:25;99879.81;;;15.25;74.16
82784;BME280;72520;55.762;37.780;2023-08-30T04:39:27;99878.84;;;15.26;74.10
82784;BME280;72520;55.762;37.780;2023-08-30T04:42:31;99877.00;;;15.26;74.00
82784;BME280;72520;55.762;37.780;2023-08-30T04:45:35;99886.03;;;15.25;74.17
82784;BME280;72520;55.762;37.780;2023-08-30T04:48:38;99886.88;;;15.26;74.14
82784;BME280;72520;55.762;37.780;2023-08-30T04:51:40;99884.31;;;15.24;73.71
82784;BME280;72520;55.762;37.780;2023-08-30T04:54:42;99892.09;;;15.27;73.71
82784;BME280;72520;55.762;37.780;2023-08-30T04:57:45;99886.72;;;15.27;73.82
82784;BME280;72520;55.762;37.780;2023-08-30T05:00:50;99890.28;;;15.28;74.00
82784;BME280;72520;55.762;37.780;2023-08-30T05:03:52;99895.63;;;15.28;74.09
82784;BME280;72520;55.762;37.780;2023-08-30T05:06:54;99903.69;;;15.28;73.68
82784;BME280;72520;55.762;37.780;2023-08-30T05:09:56;99900.16;;;15.27;73.74
82784;BME280;72520;55.762;37.780;2023-08-30T05:12:58;99890.41;;;15.26;74.14
82784;BME280;72520;55.762;37.780;2023-08-30T05:16:01;99887.59;;;15.28;74.12
82784;BME280;72520;55.762;37.780;2023-08-30T05:19:03;99900.03;;;15.29;73.99
82784;BME280;72520;55.762;37.780;2023-08-30T05:22:05;99887.47;;;15.29;74.07
82784;BME280;72520;55.762;37.780;2023-08-30T05:25:08;99878.47;;;15.31;73.08
82784;BME280;72520;55.762;37.780;2023-08-30T05:28:10;99879.16;;;15.33;73.18
82784;BME280;72520;55.762;37.780;2023-08-30T05:31:13;99892.31;;;15.36;72.98
82784;BME280;72520;55.762;37.780;2023-08-30T05:34:15;99877.78;;;15.38;73.20
82784;BME280;72520;55.762;37.780;2023-08-30T05:37:17;99866.81;;;15.41;73.42
82784;BME280;72520;55.762;37.780;2023-08-30T05:40:20;99861.22;;;15.44;72.85
82784;BME280;72520;55.762;37.780;2023-08-30T05:43:22;99878.97;;;15.45;72.92
82784;BME280;72520;55.762;37.780;2023-08-30T05:46:25;99873.50;;;15.47;72.99
82784;BME280;72520;55.762;37.780;2023-08-30T05:49:28;99878.63;;;15.50;72.62
82784;BME280;72520;55.762;37.780;2023-08-30T05:52:30;99876.06;;;15.48;72.64
82784;BME280;72520;55.762;37.780;2023-08-30T05:55:32;99878.13;;;15.45;72.45
82784;BME280;72520;55.762;37.780;2023-08-30T05:58:34;99895.22;;;15.44;72.34
82784;BME280;72520;55.762;37.780;2023-08-30T06:01:37;99895.47;;;15.41;72.23
82784;BME280;72520;55.762;37.780;2023-08-30T06:04:39;99897.91;;;15.44;72.38
82784;BME280;72520;55.762;37.780;2023-08-30T06:07:41;99903.97;;;15.46;72.44
82784;BME280;72520;55.762;37.780;2023-08-30T06:10:43;99906.44;;;15.49;72.79
82784;BME280;72520;55.762;37.780;2023-08-30T06:13:46;99909.59;;;15.54;72.55
82784;BME280;72520;55.762;37.780;2023-08-30T06:16:49;99909.34;;;15.57;72.69
82784;BME280;72520;55.762;37.780;2023-08-30T06:19:54;99910.91;;;15.59;72.33
82784;BME280;72520;55.762;37.780;2023-08-30T06:22:57;99905.41;;;15.61;72.34
82784;BME280;72520;55.762;37.780;2023-08-30T06:26:00;99911.75;;;15.60;72.00
82784;BME280;72520;55.762;37.780;2023-08-30T06:29:03;99907.63;;;15.56;72.07
82784;BME280;72520;55.762;37.780;2023-08-30T06:32:07;99907.19;;;15.51;71.67
82784;BME280;72520;55.762;37.780;2023-08-30T06:35:09;99908.16;;;15.50;71.29
82784;BME280;72520;55.762;37.780;2023-08-30T06:38:11;99904.50;;;15.51;71.53
82784;BME280;72520;55.762;37.780;2023-08-30T06:41:13;99904.94;;;15.56;71.68
82784;BME280;72520;55.762;37.780;2023-08-30T06:44:15;99907.25;;;15.60;71.99
82784;BME280;72520;55.762;37.780;2023-08-30T06:47:19;99909.78;;;15.62;71.43
82784;BME280;72520;55.762;37.780;2023-08-30T06:50:21;99914.88;;;15.65;71.61
82784;BME280;72520;55.762;37.780;2023-08-30T06:53:24;99918.31;;;15.67;71.71
82784;BME280;72520;55.762;37.780;2023-08-30T06:56:26;99913.53;;;15.70;71.38
82784;BME280;72520;55.762;37.780;2023-08-30T06:59:28;99905.81;;;15.77;71.54
82784;BME280;72520;55.762;37.780;2023-08-30T07:02:32;99907.84;;;15.85;71.24
82784;BME280;72520;55.762;37.780;2023-08-30T07:05:34;99915.97;;;15.94;71.66
82784;BME280;72520;55.762;37.780;2023-08-30T07:08:39;99922.03;;;15.96;71.07
82784;BME280;72520;55.762;37.780;2023-08-30T07:11:42;99915.00;;;15.95;71.02
82784;BME280;72520;55.762;37.780;2023-08-30T07:14:45;99919.22;;;15.98;70.89
82784;BME280;72520;55.762;37.780;2023-08-30T07:17:48;99911.88;;;16.00;70.64
82784;BME280;72520;55.762;37.780;2023-08-30T07:20:52;99911.50;;;16.04;70.74
82784;BME280;72520;55.762;37.780;2023-08-30T07:23:54;99920.00;;;16.09;70.11
82784;BME280;72520;55.762;37.780;2023-08-30T07:26:56;99926.09;;;16.11;70.31
82784;BME280;72520;55.762;37.780;2023-08-30T07:29:58;99927.81;;;16.12;70.38
82784;BME280;72520;55.762;37.780;2023-08-30T07:33:02;99917.06;;;16.12;70.79
82784;BME280;72520;55.762;37.780;2023-08-30T07:36:05;99923.84;;;16.16;70.57
82784;BME280;72520;55.762;37.780;2023-08-30T07:39:07;99916.97;;;16.23;69.92
82784;BME280;72520;55.762;37.780;2023-08-30T07:42:10;99915.88;;;16.26;70.20
82784;BME280;72520;55.762;37.780;2023-08-30T07:45:12;99922.66;;;16.30;69.89
82784;BME280;72520;55.762;37.780;2023-08-30T07:48:16;99924.75;;;16.26;70.06
82784;BME280;72520;55.762;37.780;2023-08-30T07:51:18;99937.75;;;16.21;69.47
82784;BME280;72520;55.762;37.780;2023-08-30T07:54:20;99923.84;;;16.16;69.72
82784;BME280;72520;55.762;37.780;2023-08-30T07:57:23;99934.75;;;16.15;69.71
82784;BME280;72520;55.762;37.780;2023-08-30T08:00:25;99935.06;;;16.21;69.77
82784;BME280;72520;55.762;37.780;2023-08-30T08:03:28;99931.00;;;16.27;69.98
82784;BME280;72520;55.762;37.780;2023-08-30T08:06:30;99942.78;;;16.36;70.06
82784;BME280;72520;55.762;37.780;2023-08-30T08:09:32;99941.28;;;16.43;69.76
82784;BME280;72520;55.762;37.780;2023-08-30T08:12:35;99938.75;;;16.51;69.60
82784;BME280;72520;55.762;37.780;2023-08-30T08:15:38;99935.78;;;16.54;68.55
82784;BME280;72520;55.762;37.780;2023-08-30T08:18:41;99939.59;;;16.51;68.80
82784;BME280;72520;55.762;37.780;2023-08-30T08:21:43;99953.53;;;16.56;69.67
82784;BME280;72520;55.762;37.780;2023-08-30T08:24:45;99944.94;;;16.72;68.99
82784;BME280;72520;55.762;37.780;2023-08-30T08:27:47;99944.13;;;16.81;68.30
82784;BME280;72520;55.762;37.780;2023-08-30T08:30:50;99945.84;;;16.82;67.44
82784;BME280;72520;55.762;37.780;2023-08-30T08:34:07;99947.66;;;16.82;66.58
82784;BME280;72520;55.762;37.780;2023-08-30T08:37:10;99943.44;;;16.89;66.56
82784;BME280;72520;55.762;37.780;2023-08-30T08:40:12;99949.69;;;16.99;66.56
82784;BME280;72520;55.762;37.780;2023-08-30T08:43:15;99955.25;;;17.07;65.97
82784;BME280;72520;55.762;37.780;2023-08-30T08:46:19;99951.91;;;17.24;65.59
82784;BME280;72520;55.762;37.780;2023-08-30T08:49:27;99945.09;;;17.39;65.11
82784;BME280;72520;55.762;37.780;2023-08-30T08:52:32;99952.94;;;17.52;65.35
82784;BME280;72520;55.762;37.780;2023-08-30T08:55:35;99955.34;;;17.55;64.58
82784;BME280;72520;55.762;37.780;2023-08-30T08:58:38;99949.81;;;17.66;64.51
82784;BME280;72520;55.762;37.780;2023-08-30T09:01:40;99950.97;;;17.73;64.66
82784;BME280;72520;55.762;37.780;2023-08-30T09:04:44;99965.16;;;17.75;64.22
82784;BME280;72520;55.762;37.780;2023-08-30T09:07:46;99958.06;;;17.74;63.71
82784;BME280;72520;55.762;37.780;2023-08-30T09:10:48;99970.94;;;17.70;63.87
82784;BME280;72520;55.762;37.780;2023-08-30T09:13:51;99967.84;;;17.65;64.50
82784;BME280;72520;55.762;37.780;2023-08-30T09:16:56;99972.91;;;17.59;64.50
82784;BME280;72520;55.762;37.780;2023-08-30T09:20:10;99968.41;;;17.69;64.51
82784;BME280;72520;55.762;37.780;2023-08-30T09:23:19;99972.94;;;17.78;62.53
82784;BME280;72520;55.762;37.780;2023-08-30T09:26:22;99975.91;;;17.85;63.01
82784;BME280;72520;55.762;37.780;2023-08-30T09:29:25;99975.50;;;17.89;62.27
82784;BME280;72520;55.762;37.780;2023-08-30T09:32:27;99974.19;;;17.93;62.76
82784;BME280;72520;55.762;37.780;2023-08-30T09:35:31;99975.78;;;17.96;63.09
82784;BME280;72520;55.762;37.780;2023-08-30T09:38:33;99978.59;;;17.94;63.17
82784;BME280;72520;55.762;37.780;2023-08-30T09:41:35;99974.47;;;17.90;63.12
82784;BME280;72520;55.762;37.780;2023-08-30T09:44:37;99978.19;;;17.89;63.24
82784;BME280;72520;55.762;37.780;2023-08-30T09:47:39;99976.59;;;17.87;63.81
82784;BME280;72520;55.762;37.780;2023-08-30T09:50:44;99981.28;;;17.85;64.02
82784;BME280;72520;55.762;37.780;2023-08-30T09:53:49;99979.16;;;17.88;63.61
82784;BME280;72520;55.762;37.780;2023-08-30T09:56:55;99982.72;;;17.98;62.59
82784;BME280;72520;55.762;37.780;2023-08-30T09:59:59;99992.91;;;18.04;62.31
82784;BME280;72520;55.762;37.780;2023-08-30T10:03:02;99991.59;;;18.18;61.71
82784;BME280;72520;55.762;37.780;2023-08-30T10:06:06;99986.06;;;18.29;62.03
82784;BME280;72520;55.762;37.780;2023-08-30T10:09:09;99995.28;;;18.36;61.94
82784;BME280;72520;55.762;37.780;2023-08-30T10:12:11;99995.84;;;18.40;61.80
82784;BME280;72520;55.762;37.780;2023-08-30T10:15:14;99992.97;;;18.41;61.98
82784;BME280;72520;55.762;37.780;2023-08-30T10:18:19;100002.50;;;18.36;62.07
82784;BME280;72520;55.762;37.780;2023-08-30T10:21:26;99995.13;;;18.28;61.97
82784;BME280;72520;55.762;37.780;2023-08-30T10:24:31;99992.59;;;18.26;62.45
82784;BME280;72520;55.762;37.780;2023-08-30T10:27:37;99991.59;;;18.27;62.52
82784;BME280;72520;55.762;37.780;2023-08-30T10:30:43;99986.47;;;18.34;62.41
82784;BME280;72520;55.762;37.780;2023-08-30T10:33:49;99982.50;;;18.38;62.04
82784;BME280;72520;55.762;37.780;2023-08-30T10:36:59;99979.50;;;18.41;62.28
82784;BME280;72520;55.762;37.780;2023-08-30T10:40:02;99987.72;;;18.49;62.05
82784;BME280;72520;55.762;37.780;2023-08-30T10:43:05;99993.97;;;18.50;62.39
82784;BME280;72520;55.762;37.780;2023-08-30T10:46:07;99989.16;;;18.53;61.96
82784;BME280;72520;55.762;37.780;2023-08-30T10:49:12;99985.44;;;18.54;61.93
82784;BME280;72520;55.762;37.780;2023-08-30T10:52:17;99986.88;;;18.49;62.17
82784;BME280;72520;55.762;37.780;2023-08-30T10:55:21;99977.22;;;18.46;60.98
82784;BME280;72520;55.762;37.780;2023-08-30T10:58:23;99970.44;;;18.52;61.79
82784;BME280;72520;55.762;37.780;2023-08-30T11:01:27;99978.66;;;18.60;62.09
82784;BME280;72520;55.762;37.780;2023-08-30T11:04:29;99982.28;;;18.68;62.47
82784;BME280;72520;55.762;37.780;2023-08-30T11:07:32;99985.97;;;18.77;62.34
82784;BME280;72520;55.762;37.780;2023-08-30T11:10:34;99981.06;;;18.90;61.56
82784;BME280;72520;55.762;37.780;2023-08-30T11:13:36;99975.50;;;18.92;61.29
82784;BME280;72520;55.762;37.780;2023-08-30T11:16:39;99972.97;;;18.90;61.30
82784;BME280;72520;55.762;37.780;2023-08-30T11:19:41;99975.25;;;18.85;61.42
82784;BME280;72520;55.762;37.780;2023-08-30T11:22:45;99975.56;;;18.82;61.08
82784;BME280;72520;55.762;37.780;2023-08-30T11:25:50;99975.88;;;18.79;60.74
82784;BME280;72520;55.762;37.780;2023-08-30T11:28:55;99967.63;;;18.80;61.42
82784;BME280;72520;55.762;37.780;2023-08-30T11:31:57;99972.88;;;18.82;60.76
82784;BME280;72520;55.762;37.780;2023-08-30T11:34:59;99980.94;;;18.82;59.98
82784;BME280;72520;55.762;37.780;2023-08-30T11:38:03;99972.69;;;18.93;60.24
82784;BME280;72520;55.762;37.780;2023-08-30T11:41:05;99963.03;;;19.18;60.09
82784;BME280;72520;55.762;37.780;2023-08-30T11:44:09;99972.22;;;19.25;59.79
82784;BME280;72520;55.762;37.780;2023-08-30T11:47:17;99970.66;;;19.22;58.80
82784;BME280;72520;55.762;37.780;2023-08-30T11:50:20;99967.28;;;19.20;58.93
82784;BME280;72520;55.762;37.780;2023-08-30T11:53:24;99974.94;;;19.25;59.04
82784;BME280;72520;55.762;37.780;2023-08-30T11:56:27;99975.00;;;19.33;59.40
82784;BME280;72520;55.762;37.780;2023-08-30T11:59:29;99972.84;;;19.37;59.19
82784;BME280;72520;55.762;37.780;2023-08-30T12:02:36;99968.56;;;19.44;59.42
82784;BME280;72520;55.762;37.780;2023-08-30T12:05:44;99978.44;;;19.53;58.72
82784;BME280;72520;55.762;37.780;2023-08-30T12:08:47;99973.59;;;19.56;59.31
82784;BME280;72520;55.762;37.780;2023-08-30T12:11:49;99965.50;;;19.56;58.65
82784;BME280;72520;55.762;37.780;2023-08-30T12:14:55;99968.91;;;19.58;58.82
82784;BME280;72520;55.762;37.780;2023-08-30T12:18:06;99962.50;;;19.59;58.59
82784;BME280;72520;55.762;37.780;2023-08-30T12:21:08;99955.53;;;19.57;58.88
82784;BME280;72520;55.762;37.780;2023-08-30T12:24:11;99951.16;;;19.56;59.39
82784;BME280;72520;55.762;37.780;2023-08-30T12:27:13;99953.56;;;19.59;58.82
82784;BME280;72520;55.762;37.780;2023-08-30T12:30:16;99949.16;;;19.58;58.79
82784;BME280;72520;55.762;37.780;2023-08-30T12:33:18;99943.75;;;19.58;58.03
82784;BME280;72520;55.762;37.780;2023-08-30T12:36:20;99932.09;;;19.57;57.92
82784;BME280;72520;55.762;37.780;2023-08-30T12:39:24;99928.16;;;19.52;57.65
82784;BME280;72520;55.762;37.780;2023-08-30T12:42:26;99928.16;;;19.52;58.55
82784;BME280;72520;55.762;37.780;2023-08-30T12:45:28;99917.19;;;19.53;58.33
82784;BME280;72520;55.762;37.780;2023-08-30T12:48:32;99910.66;;;19.56;58.45
82784;BME280;72520;55.762;37.780;2023-08-30T12:51:36;99900.84;;;19.55;58.35
82784;BME280;72520;55.762;37.780;2023-08-30T12:54:44;99908.22;;;19.53;58.84
82784;BME280;72520;55.762;37.780;2023-08-30T12:57:50;99905.84;;;19.50;58.61
82784;BME280;72520;55.762;37.780;2023-08-30T13:00:54;99909.72;;;19.47;59.06
82784;BME280;72520;55.762;37.780;2023-08-30T13:03:58;99895.34;;;19.47;59.26
82784;BME280;72520;55.762;37.780;2023-08-30T13:07:05;99887.56;;;19.44;59.49
82784;BME280;72520;55.762;37.780;2023-08-30T13:10:12;99887.88;;;19.41;59.62
82784;BME280;72520;55.762;37.780;2023-08-30T13:13:17;99894.13;;;19.41;59.27
82784;BME280;72520;55.762;37.780;2023-08-30T13:16:23;99883.72;;;19.46;58.99
82784;BME280;72520;55.762;37.780;2023-08-30T13:19:29;99866.06;;;19.52;59.03
82784;BME280;72520;55.762;37.780;2023-08-30T13:22:33;99849.00;;;19.51;59.14
82784;BME280;72520;55.762;37.780;2023-08-30T13:25:41;99851.06;;;19.57;58.74
82784;BME280;72520;55.762;37.780;2023-08-30T13:28:44;99846.28;;;19.69;58.40
82784;BME280;72520;55.762;37.780;2023-08-30T13:31:49;99837.69;;;19.73;58.43
82784;BME280;72520;55.762;37.780;2023-08-30T13:34:55;99830.97;;;19.77;57.52
82784;BME280;72520;55.762;37.780;2023-08-30T13:37:58;99836.91;;;19.81;57.30
82784;BME280;72520;55.762;37.780;2023-08-30T13:41:06;99839.13;;;19.86;57.15
82784;BME280;72520;55.762;37.780;2023-08-30T13:44:10;99828.47;;;19.84;57.32
82784;BME280;72520;55.762;37.780;2023-08-30T13:47:14;99825.25;;;19.80;57.74
82784;BME280;72520;55.762;37.780;2023-08-30T13:50:20;99820.47;;;19.74;58.13
82784;BME280;72520;55.762;37.780;2023-08-30T13:53:25;99826.34;;;19.70;57.83
82784;BME280;72520;55.762;37.780;2023-08-30T13:56:33;99822.00;;;19.77;57.05
82784;BME280;72520;55.762;37.780;2023-08-30T13:59:41;99819.84;;;19.80;56.92
82784;BME280;72520;55.762;37.780;2023-08-30T14:02:45;99813.91;;;19.77;56.84
82784;BME280;72520;55.762;37.780;2023-08-30T14:05:53;99816.59;;;19.77;56.57
82784;BME280;72520;55.762;37.780;2023-08-30T14:08:57;99822.19;;;19.75;57.24
82784;BME280;72520;55.762;37.780;2023-08-30T14:12:04;99821.13;;;19.68;57.72
82784;BME280;72520;55.762;37.780;2023-08-30T14:15:09;99804.69;;;19.62;57.95
82784;BME280;72520;55.762;37.780;2023-08-30T14:18:15;99808.72;;;19.58;58.38
82784;BME280;72520;55.762;37.780;2023-08-30T14:21:20;99803.63;;;19.55;57.66
82784;BME280;72520;55.762;37.780;2023-08-30T14:24:23;99791.53;;;19.67;57.21
82784;BME280;72520;55.762;37.780;2023-08-30T14:27:30;99796.34;;;19.73;57.83
82784;BME280;72520;55.762;37.780;2023-08-30T14:30:36;99787.38;;;19.72;57.54
82784;BME280;72520;55.762;37.780;2023-08-30T14:33:43;99780.66;;;19.76;56.84
82784;BME280;72520;55.762;37.780;2023-08-30T14:36:48;99768.34;;;19.82;56.76
82784;BME280;72520;55.762;37.780;2023-08-30T14:39:54;99751.16;;;19.83;56.36
82784;BME280;72520;55.762;37.780;2023-08-30T14:43:05;99757.56;;;19.82;56.58
82784;BME280;72520;55.762;37.780;2023-08-30T14:46:11;99757.38;;;19.83;56.00
82784;BME280;72520;55.762;37.780;2023-08-30T14:49:18;99729.03;;;19.88;56.08
82784;BME280;72520;55.762;37.780;2023-08-30T14:52:23;99700.16;;;19.88;56.35
82784;BME280;72520;55.762;37.780;2023-08-30T14:55:28;99697.47;;;19.88;56.67
82784;BME280;72520;55.762;37.780;2023-08-30T14:58:34;99676.19;;;19.85;56.34
82784;BME280;72520;55.762;37.780;2023-08-30T15:01:39;99690.16;;;19.80;56.01
82784;BME280;72520;55.762;37.780;2023-08-30T15:04:45;99693.19;;;19.77;56.37
82784;BME280;72520;55.762;37.780;2023-08-30T15:07:49;99707.03;;;19.74;56.56
82784;BME280;72520;55.762;37.780;2023-08-30T15:10:54;99747.41;;;19.76;56.71
82784;BME280;72520;55.762;37.780;2023-08-30T15:14:00;99774.34;;;19.68;56.67
82784;BME280;72520;55.762;37.780;2023-08-30T15:17:06;99802.34;;;19.67;56.84
82784;BME280;72520;55.762;37.780;2023-08-30T15:20:12;99799.63;;;19.59;57.44
82784;BME280;72520;55.762;37.780;2023-08-30T15:23:17;99798.88;;;19.49;57.44
82784;BME280;72520;55.762;37.780;2023-08-30T15:26:22;99797.91;;;19.40;57.90
82784;BME280;72520;55.762;37.780;2023-08-30T15:29:29;99793.78;;;19.28;58.65
82784;BME280;72520;55.762;37.780;2023-08-30T15:32:34;99798.22;;;19.19;59.08
82784;BME280;72520;55.762;37.780;2023-08-30T15:35:39;99810.19;;;19.17;58.71
82784;BME280;72520;55.762;37.780;2023-08-30T15:38:44;99817.06;;;19.11;59.55
82784;BME280;72520;55.762;37.780;2023-08-30T15:41:48;99828.72;;;19.12;58.88
82784;BME280;72520;55.762;37.780;2023-08-30T15:44:55;99837.63;;;19.12;58.97
82784;BME280;72520;55.762;37.780;2023-08-30T15:47:59;99833.84;;;19.05;59.71
82784;BME280;72520;55.762;37.780;2023-08-30T15:51:03;99825.84;;;18.96;59.97
82784;BME280;72520;55.762;37.780;2023-08-30T15:54:11;99818.91;;;18.93;60.00
82784;BME280;72520;55.762;37.780;2023-08-30T15:57:15;99814.03;;;18.97;59.46
82784;BME280;72520;55.762;37.780;2023-08-30T16:00:21;99807.50;;;18.99;59.18